首页
METAR-TAF:

METAR-TAF

机场 :

特倫頓空軍基地

特伦顿, 安大略省, 加拿大

纬度: 44-07N, 经度: 077-32W, 海拔: 85米

当前天气观测

该预报发布于26分钟前的13:00 UTC
风速2节,风向
温度 21°C
湿度 78%
气压 1010 hPa
能見度: 24.1公里
少量云层高于7000英尺
少量云层高于25000英尺

METAR: CYTR 051300Z CCA 19002KT 15SM FEW070 FEW250 21/17 A2983 RMK AC1CI1 SLP102

时间: 09:26 (13:26 UTC)

预报

该预报发布于1小时和56分钟前的11:30 UTC
预报有效从05日的 12点(UTC)到 06日的 12点(UTC)
风速3节,风向多变
能見度: 10公里
少量云层高于7000英尺
少量云层高于25000英尺
从 05日的 1500点(UTC)
风速10节,风向南转西南
能見度: 10公里
散云层高于6000英尺
从 05日的 1800点(UTC)
风速12节,风向南转西南,有时为22节阵风
能見度: 10公里
多云层高于8000英尺
短暂存在
从 05日的 18点(UTC)到 06日的 02点(UTC)
能見度: 8.0公里
散云层高于2000英尺
多云层高于5000英尺
小阵雨, 轻雾
几率 30%
从 05日的 19点(UTC)到 06日的 02点(UTC)
风速15节,风向多变,有时为25节阵风
能見度: 3.2公里
多云层高于2000英尺
阴天层高于3000英尺, 积雨云.
雷暴, 雨, 轻雾
从 06日的 0200点(UTC)
风速5节,风向西南
能見度: 10公里
少量云层高于1000英尺
多云层高于8000英尺
从 06日的 0800点(UTC)
风速8节,风向西北
能見度: 10公里
多云层高于6000英尺
成为
从 06日的 08点(UTC)到 06日的 10点(UTC)
风速10节,风向西北,有时为20节阵风

TAF: CYTR 051130Z 0512/0612 VRB03KT P6SM FEW070 FEW250 FM051500 20010KT P6SM SCT060 FM051800 21012G22KT P6SM BKN080 TEMPO 0518/0602 5SM -SHRA BR SCT020 BKN050 PROB30 0519/0602 VRB15G25KT 2SM TSRA BR BKN020 OVC030CB FM060200 22005KT P6SM FEW010 BKN080 FM060800 31008KT P6SM BKN060 BECMG 0608/0610 31010G20KT RMK NXT FCST BY 051800Z

超过4000个机场的气象观测和天气预报(METAR&TAF报告)。

可查询的气象台以黄色和红色小点在地图上表示。

将鼠标移到小点上方,可查看气象台名称。

然后点击查看天气观测和预报。

如需切换地图:点击带黑十字的绿色按钮放大地图;点击带横线的绿色按钮缩小地图;或者点击绿色箭头查看邻近地区的地图。


METAR-TAF: